createdAt,value
2022-08-09T00:01:48.379Z,3.17
2022-08-09T00:04:35.373Z,2.42
2022-08-09T00:07:07.632Z,2.22
2022-08-09T00:09:40.018Z,1.90
2022-08-09T00:12:09.281Z,2.22
2022-08-09T00:14:51.063Z,2.22
2022-08-09T00:18:06.204Z,2.40
2022-08-09T00:20:16.685Z,2.35
2022-08-09T00:22:47.206Z,2.30
2022-08-09T00:25:15.857Z,2.50
2022-08-09T00:27:52.009Z,2.25
2022-08-09T00:30:26.182Z,2.63
2022-08-09T00:32:56.952Z,2.53
2022-08-09T00:35:26.371Z,2.67
2022-08-09T00:37:58.060Z,2.35
2022-08-09T00:40:30.227Z,2.83
2022-08-09T00:44:15.598Z,2.80
2022-08-09T00:45:53.959Z,2.78
2022-08-09T00:48:24.149Z,2.53
2022-08-09T00:50:54.049Z,2.97
2022-08-09T00:53:24.018Z,2.60
2022-08-09T00:56:05.226Z,2.95
2022-08-09T00:58:38.989Z,2.92
2022-08-09T01:01:16.214Z,2.72
2022-08-09T01:03:57.029Z,2.72
2022-08-09T01:06:54.419Z,2.58
2022-08-09T01:09:35.872Z,2.72
2022-08-09T01:12:18.754Z,2.60
2022-08-09T01:15:01.641Z,2.70
2022-08-09T01:17:39.863Z,2.60
2022-08-09T01:20:14.866Z,2.90
2022-08-09T01:24:01.841Z,2.80
2022-08-09T01:26:46.176Z,3.05
2022-08-09T01:29:17.092Z,2.88
2022-08-09T01:32:31.324Z,3.30
2022-08-09T01:34:39.182Z,3.50
2022-08-09T01:37:13.685Z,3.15
2022-08-09T01:39:45.480Z,3.07
2022-08-09T01:42:17.168Z,3.10
2022-08-09T01:44:48.629Z,2.92
2022-08-09T01:47:18.170Z,3.40
2022-08-09T01:49:50.774Z,3.53
2022-08-09T01:52:21.507Z,2.83
2022-08-09T01:54:56.476Z,2.90
2022-08-09T01:57:30.278Z,3.45
2022-08-09T02:00:34.479Z,3.13
2022-08-09T02:03:00.751Z,3.25
2022-08-09T02:05:38.158Z,3.00
2022-08-09T02:08:40.609Z,3.10
2022-08-09T02:11:17.206Z,3.35
2022-08-09T02:14:06.223Z,3.20
2022-08-09T02:16:58.983Z,3.30
2022-08-09T02:19:34.849Z,2.90
2022-08-09T02:22:14.812Z,3.25
2022-08-09T02:24:51.980Z,3.15
2022-08-09T02:27:27.452Z,3.72
2022-08-09T02:30:15.610Z,3.58
2022-08-09T02:32:48.474Z,3.47
2022-08-09T02:36:01.108Z,3.30
2022-08-09T02:41:03.062Z,3.65
2022-08-09T02:43:53.465Z,3.17
2022-08-09T02:46:28.593Z,3.90
2022-08-09T02:49:01.444Z,3.30
2022-08-09T02:51:37.258Z,3.45
2022-08-09T02:54:13.993Z,3.78
2022-08-09T02:56:51.163Z,3.40
2022-08-09T02:59:26.596Z,3.90
2022-08-09T03:04:42.829Z,4.10
2022-08-09T03:07:14.192Z,3.75
2022-08-09T03:09:53.955Z,3.92
2022-08-09T03:12:27.055Z,3.83
2022-08-09T03:14:56.340Z,4.07
2022-08-09T03:17:27.689Z,4.10
2022-08-09T03:20:03.506Z,4.03
2022-08-09T03:22:41.909Z,4.70
2022-08-09T03:25:56.791Z,4.55
2022-08-09T03:28:05.156Z,4.65
2022-08-09T03:30:40.399Z,4.05
2022-08-09T03:33:18.685Z,4.05
2022-08-09T03:36:15.707Z,3.92
2022-08-09T03:38:41.909Z,3.83
2022-08-09T03:41:15.376Z,4.35
2022-08-09T03:44:03.496Z,4.25
2022-08-09T03:46:36.106Z,4.10
2022-08-09T03:49:08.957Z,4.50
2022-08-09T03:51:56.962Z,3.95
2022-08-09T03:54:32.132Z,4.05
2022-08-09T03:57:18.725Z,4.47
2022-08-09T03:59:54.211Z,4.20
2022-08-09T04:02:28.194Z,4.35
2022-08-09T04:05:06.398Z,4.50
2022-08-09T04:07:52.440Z,4.45
2022-08-09T04:10:29.315Z,4.78
2022-08-09T04:13:04.542Z,4.45
2022-08-09T04:16:17.884Z,4.50
2022-08-09T04:18:22.264Z,4.22
2022-08-09T04:20:55.416Z,4.78
2022-08-09T04:23:24.700Z,4.50
2022-08-09T04:25:54.780Z,4.60
2022-08-09T04:28:33.180Z,4.57
2022-08-09T04:31:07.881Z,4.78
2022-08-09T04:33:52.407Z,4.75
2022-08-09T04:36:29.322Z,5.13
2022-08-09T04:41:32.801Z,5.32
2022-08-09T04:44:05.705Z,5.55
2022-08-09T04:46:57.421Z,4.65
2022-08-09T04:49:40.820Z,4.80
2022-08-09T04:52:18.466Z,5.13
2022-08-09T04:54:52.320Z,6.22
2022-08-09T04:57:24.325Z,5.00
2022-08-09T04:59:54.294Z,5.65
2022-08-09T05:02:23.801Z,4.88
2022-08-09T05:04:56.515Z,5.55
2022-08-09T05:07:27.680Z,5.63
2022-08-09T05:09:57.735Z,5.13
2022-08-09T05:12:31.166Z,4.97
2022-08-09T05:15:11.806Z,4.77
2022-08-09T05:18:38.008Z,5.10
2022-08-09T05:20:40.823Z,6.22
2022-08-09T05:23:54.845Z,5.25
2022-08-09T05:25:58.897Z,5.45
2022-08-09T05:28:27.431Z,5.07
2022-08-09T05:30:56.127Z,4.80
2022-08-09T05:33:33.194Z,5.05
2022-08-09T05:36:03.952Z,5.60
2022-08-09T05:38:34.014Z,5.38
2022-08-09T05:41:08.436Z,5.15
2022-08-09T05:43:45.176Z,5.10
2022-08-09T05:46:17.370Z,4.28
2022-08-09T05:48:58.540Z,4.32
2022-08-09T05:51:42.418Z,5.00
2022-08-09T05:54:17.922Z,5.05
2022-08-09T05:56:55.379Z,4.88
2022-08-09T05:59:25.284Z,4.05
2022-08-09T06:01:58.811Z,4.35
2022-08-09T06:04:34.879Z,4.70
2022-08-09T06:07:04.089Z,4.30
2022-08-09T06:09:54.468Z,4.05
2022-08-09T06:12:22.189Z,4.43
2022-08-09T06:14:54.950Z,4.55
2022-08-09T06:17:27.214Z,4.25
2022-08-09T06:20:08.954Z,5.32
2022-08-09T06:22:38.285Z,5.05
2022-08-09T06:25:12.427Z,4.60
2022-08-09T06:27:51.328Z,4.97
2022-08-09T06:30:20.888Z,4.97
2022-08-09T06:32:59.458Z,5.25
2022-08-09T06:35:56.002Z,4.97
2022-08-09T06:38:18.037Z,5.05
2022-08-09T06:40:49.011Z,5.45
2022-08-09T06:43:23.466Z,4.75
2022-08-09T06:46:06.493Z,4.90
2022-08-09T06:48:42.862Z,4.60
2022-08-09T06:51:12.672Z,5.63
2022-08-09T06:53:43.138Z,5.43
2022-08-09T06:56:13.484Z,4.88
2022-08-09T07:00:50.511Z,5.45
2022-08-09T07:01:35.782Z,4.85
2022-08-09T07:04:20.986Z,5.13
2022-08-09T07:06:53.118Z,4.72
2022-08-09T07:09:55.582Z,4.38
2022-08-09T07:12:13.784Z,5.15
2022-08-09T07:14:50.731Z,4.90
2022-08-09T07:17:22.145Z,4.07
2022-08-09T07:19:55.246Z,5.03
2022-08-09T07:22:34.413Z,4.75
2022-08-09T07:25:05.075Z,4.57
2022-08-09T07:27:42.642Z,4.75
2022-08-09T07:30:14.826Z,4.63
2022-08-09T07:32:43.848Z,4.13
2022-08-09T07:35:14.966Z,3.75
2022-08-09T07:37:46.166Z,4.38
2022-08-09T07:40:20.486Z,4.45
2022-08-09T07:42:57.053Z,3.55
2022-08-09T07:45:37.513Z,4.10
2022-08-09T07:48:28.605Z,4.43
2022-08-09T07:51:09.987Z,4.40
2022-08-09T07:54:07.390Z,4.80
2022-08-09T07:56:44.876Z,3.55
2022-08-09T07:59:33.916Z,4.10
2022-08-09T08:02:03.550Z,4.07
2022-08-09T08:04:34.089Z,3.60
2022-08-09T08:07:21.593Z,4.55
2022-08-09T08:09:54.940Z,3.67
2022-08-09T08:12:33.815Z,4.07
2022-08-09T08:15:03.861Z,3.67
2022-08-09T08:17:52.155Z,3.45
2022-08-09T08:20:29.520Z,3.75
2022-08-09T08:23:06.546Z,5.18
2022-08-09T08:25:53.932Z,4.90
2022-08-09T08:28:35.450Z,3.70
2022-08-09T08:31:13.835Z,3.85
2022-08-09T08:33:52.923Z,3.78
2022-08-09T08:36:28.624Z,3.42
2022-08-09T08:38:58.526Z,3.67
2022-08-09T08:41:50.343Z,3.88
2022-08-09T08:44:27.515Z,3.55
2022-08-09T08:47:04.993Z,3.65
2022-08-09T08:49:48.657Z,3.83
2022-08-09T08:52:52.818Z,3.10
2022-08-09T08:55:09.330Z,4.68
2022-08-09T08:57:38.731Z,4.78
2022-08-09T09:00:16.932Z,3.88
2022-08-09T09:02:55.402Z,3.47
2022-08-09T09:05:57.772Z,4.30
2022-08-09T09:08:30.515Z,4.40
2022-08-09T09:11:04.202Z,4.68
2022-08-09T09:13:55.903Z,4.43
2022-08-09T09:16:29.742Z,4.50
2022-08-09T09:19:36.903Z,3.65
2022-08-09T09:22:11.720Z,4.47
2022-08-09T09:24:44.906Z,4.35
2022-08-09T09:27:47.235Z,3.95
2022-08-09T09:30:27.504Z,3.35
2022-08-09T09:33:13.874Z,3.97
2022-08-09T09:36:01.455Z,3.63
2022-08-09T09:38:46.838Z,4.25
2022-08-09T09:41:48.674Z,3.20
2022-08-09T09:44:27.884Z,5.30
2022-08-09T09:47:08.986Z,3.25
2022-08-09T09:50:13.245Z,4.75
2022-08-09T09:52:37.297Z,4.80
2022-08-09T09:55:27.713Z,4.05
2022-08-09T09:58:15.647Z,3.03
2022-08-09T10:00:53.852Z,3.92
2022-08-09T10:03:57.630Z,3.63
2022-08-09T10:06:32.479Z,3.55
2022-08-09T10:09:11.768Z,3.22
2022-08-09T10:12:12.434Z,3.15
2022-08-09T10:14:48.792Z,3.22
2022-08-09T10:17:51.097Z,3.33
2022-08-09T10:20:36.061Z,3.35
2022-08-09T10:23:20.294Z,3.25
2022-08-09T10:26:05.972Z,4.38
2022-08-09T10:28:40.870Z,3.35
2022-08-09T10:34:10.761Z,3.80
2022-08-09T10:36:56.719Z,3.03
2022-08-09T10:39:28.694Z,3.67
2022-08-09T10:41:58.663Z,3.50
2022-08-09T10:44:30.368Z,3.40
2022-08-09T10:48:26.052Z,3.10
2022-08-09T10:50:52.109Z,3.63
2022-08-09T10:53:46.714Z,3.70
2022-08-09T10:56:25.610Z,2.83
2022-08-09T10:58:57.455Z,3.50
2022-08-09T11:03:13.673Z,2.65
2022-08-09T11:04:32.655Z,3.10
2022-08-09T11:10:31.956Z,3.22
2022-08-09T11:13:53.693Z,2.53
2022-08-09T11:16:37.968Z,2.75
2022-08-09T11:19:10.649Z,3.15
2022-08-09T11:21:57.485Z,2.65
2022-08-09T11:25:04.546Z,3.20
2022-08-09T11:28:05.433Z,3.30
2022-08-09T11:30:36.520Z,2.63
2022-08-09T11:33:26.372Z,2.40
2022-08-09T11:35:58.666Z,3.03
2022-08-09T11:38:33.189Z,2.90
2022-08-09T11:41:38.180Z,2.83
2022-08-09T11:44:09.304Z,2.40
2022-08-09T11:46:59.600Z,2.45
2022-08-09T11:50:56.582Z,2.40
2022-08-09T11:53:55.059Z,2.50
2022-08-09T11:56:42.314Z,2.30
2022-08-09T11:59:30.715Z,2.67
2022-08-09T12:02:21.255Z,2.60
2022-08-09T12:04:58.733Z,2.25
2022-08-09T12:07:41.161Z,3.00
2022-08-09T12:10:14.167Z,2.95
2022-08-09T12:13:03.724Z,2.33
2022-08-09T12:15:52.221Z,2.80
2022-08-09T12:18:29.663Z,2.45
2022-08-09T12:21:02.674Z,3.03
2022-08-09T12:23:56.454Z,2.40
2022-08-09T12:26:25.806Z,2.60
2022-08-09T12:29:13.567Z,2.72
2022-08-09T12:32:02.490Z,2.40
2022-08-09T12:34:36.773Z,2.42
2022-08-09T12:37:21.983Z,2.90
2022-08-09T12:40:07.729Z,2.35
2022-08-09T12:42:37.855Z,2.42
2022-08-09T12:45:33.706Z,2.10
2022-08-09T12:47:58.801Z,2.40
2022-08-09T12:50:28.606Z,2.40
2022-08-09T12:53:17.607Z,2.42
2022-08-09T12:56:16.129Z,2.50
2022-08-09T12:58:42.551Z,2.58
2022-08-09T13:01:26.890Z,2.42
2022-08-09T13:04:02.299Z,2.38
2022-08-09T13:06:35.669Z,2.60
2022-08-09T13:09:13.585Z,2.40
2022-08-09T13:11:46.598Z,2.47
2022-08-09T13:14:41.026Z,2.45
2022-08-09T13:17:44.274Z,2.38
2022-08-09T13:20:17.486Z,2.45
2022-08-09T13:23:02.167Z,2.47
2022-08-09T13:25:52.910Z,2.30
2022-08-09T13:28:34.198Z,2.35
2022-08-09T13:32:13.314Z,2.58
2022-08-09T13:33:57.266Z,2.95
2022-08-09T13:36:40.754Z,2.03
2022-08-09T13:41:19.533Z,2.70
2022-08-09T13:42:03.223Z,2.58
2022-08-09T13:44:35.024Z,2.33
2022-08-09T13:47:26.616Z,2.22
2022-08-09T13:49:57.450Z,2.35
2022-08-09T13:52:30.163Z,2.15
2022-08-09T13:55:02.063Z,2.28
2022-08-09T13:57:40.334Z,2.47
2022-08-09T14:00:16.117Z,2.53
2022-08-09T14:03:16.894Z,2.88
2022-08-09T14:06:00.479Z,2.50
2022-08-09T14:08:26.927Z,2.03
2022-08-09T14:10:56.662Z,2.08
2022-08-09T14:13:28.206Z,2.30
2022-08-09T14:16:19.101Z,2.40
2022-08-09T14:18:51.800Z,2.17
2022-08-09T14:21:24.007Z,2.58
2022-08-09T14:23:57.130Z,1.90
2022-08-09T14:26:32.127Z,1.95
2022-08-09T14:29:07.824Z,2.08
2022-08-09T14:31:55.613Z,2.10
2022-08-09T14:34:27.341Z,2.15
2022-08-09T14:37:06.872Z,2.25
2022-08-09T14:39:45.373Z,2.55
2022-08-09T14:42:30.922Z,2.83
2022-08-09T14:46:54.364Z,2.45
2022-08-09T14:47:58.319Z,2.08
2022-08-09T14:50:31.547Z,2.05
2022-08-09T14:53:02.146Z,2.30
2022-08-09T14:55:32.553Z,2.22
2022-08-09T14:58:03.801Z,1.98
2022-08-09T15:00:35.208Z,2.58
2022-08-09T15:05:40.362Z,2.42
2022-08-09T15:08:19.812Z,2.30
2022-08-09T15:11:00.628Z,1.90
2022-08-09T15:13:48.513Z,2.10
2022-08-09T15:16:22.583Z,2.97
2022-08-09T15:18:52.605Z,2.50
2022-08-09T15:22:01.866Z,2.65
2022-08-09T15:24:17.461Z,1.95
2022-08-09T15:26:47.841Z,2.38
2022-08-09T15:30:56.021Z,2.17
2022-08-09T15:32:29.450Z,2.03
2022-08-09T15:35:01.371Z,2.22
2022-08-09T15:37:38.155Z,2.13
2022-08-09T15:40:32.005Z,1.90
2022-08-09T15:43:01.865Z,2.70
2022-08-09T15:45:31.333Z,2.05
2022-08-09T15:48:29.466Z,2.50
2022-08-09T15:51:29.973Z,2.15
2022-08-09T15:54:03.155Z,1.98
2022-08-09T15:56:36.770Z,2.40
2022-08-09T15:59:05.873Z,2.00
2022-08-09T16:01:35.783Z,1.92
2022-08-09T16:04:04.760Z,2.28
2022-08-09T16:06:37.415Z,2.10
2022-08-09T16:09:06.920Z,2.45
2022-08-09T16:16:13.509Z,2.17
2022-08-09T16:18:45.657Z,2.00
2022-08-09T16:21:17.689Z,2.05
2022-08-09T16:24:01.704Z,2.15
2022-08-09T16:26:34.921Z,2.35
2022-08-09T16:29:10.419Z,2.08
2022-08-09T16:32:20.065Z,1.85
2022-08-09T16:34:54.845Z,1.83
2022-08-09T16:37:20.494Z,1.85
2022-08-09T16:40:12.908Z,2.38
2022-08-09T16:42:44.903Z,1.85
2022-08-09T16:45:17.448Z,2.00
2022-08-09T16:48:40.194Z,1.90
2022-08-09T16:50:35.400Z,2.10
2022-08-09T16:53:09.049Z,1.90
2022-08-09T16:55:59.625Z,2.10
2022-08-09T16:58:29.896Z,1.80
2022-08-09T17:01:05.211Z,2.20
2022-08-09T17:03:33.977Z,1.98
2022-08-09T17:06:08.006Z,1.95
2022-08-09T17:09:02.740Z,2.33
2022-08-09T17:11:42.466Z,2.22
2022-08-09T17:14:25.447Z,2.17
2022-08-09T17:17:00.125Z,1.90
2022-08-09T17:19:47.670Z,2.10
2022-08-09T17:22:24.229Z,2.08
2022-08-09T17:25:03.203Z,1.95
2022-08-09T17:27:38.165Z,2.30
2022-08-09T17:30:12.960Z,2.10
2022-08-09T17:32:44.400Z,1.77
2022-08-09T17:38:10.131Z,2.35
2022-08-09T17:40:34.947Z,2.38
2022-08-09T17:43:32.819Z,2.10
2022-08-09T17:46:02.632Z,1.80
2022-08-09T17:48:33.001Z,2.30
2022-08-09T17:51:10.093Z,2.45
2022-08-09T17:53:51.868Z,2.17
2022-08-09T17:56:27.870Z,2.03
2022-08-09T17:59:01.052Z,2.10
2022-08-09T18:02:03.737Z,2.38
2022-08-09T18:04:22.459Z,2.13
2022-08-09T18:06:55.807Z,1.95
2022-08-09T18:09:40.498Z,2.72
2022-08-09T18:12:19.452Z,2.00
2022-08-09T18:14:54.635Z,1.98
2022-08-09T18:18:01.526Z,2.33
2022-08-09T18:20:59.346Z,2.40
2022-08-09T18:23:07.321Z,2.20
2022-08-09T18:25:53.062Z,2.67
2022-08-09T18:30:40.546Z,1.90
2022-08-09T18:31:32.185Z,2.30
2022-08-09T18:34:09.691Z,2.25
2022-08-09T18:36:38.761Z,1.95
2022-08-09T18:39:16.175Z,1.92
2022-08-09T18:41:52.588Z,2.10
2022-08-09T18:44:25.662Z,1.77
2022-08-09T18:47:05.424Z,2.15
2022-08-09T18:49:43.149Z,2.13
2022-08-09T18:52:24.624Z,2.30
2022-08-09T18:54:53.778Z,2.13
2022-08-09T18:57:23.876Z,2.38
2022-08-09T18:59:57.810Z,2.22
2022-08-09T19:02:32.481Z,2.00
2022-08-09T19:05:14.748Z,2.33
2022-08-09T19:07:59.410Z,2.47
2022-08-09T19:10:39.833Z,2.65
2022-08-09T19:13:22.615Z,2.40
2022-08-09T19:15:55.686Z,2.70
2022-08-09T19:18:33.710Z,2.53
2022-08-09T19:21:08.824Z,2.20
2022-08-09T19:24:33.356Z,2.63
2022-08-09T19:26:34.668Z,2.40
2022-08-09T19:29:09.778Z,2.38
2022-08-09T19:34:24.620Z,2.38
2022-08-09T19:36:55.699Z,2.28
2022-08-09T19:39:28.880Z,2.55
2022-08-09T19:42:03.793Z,2.47
2022-08-09T19:44:33.118Z,2.08
2022-08-09T19:47:03.842Z,2.72
2022-08-09T19:50:09.569Z,2.47
2022-08-09T19:52:22.405Z,3.10
2022-08-09T19:54:53.753Z,2.58
2022-08-09T19:57:25.707Z,2.58
2022-08-09T20:04:16.821Z,2.50
2022-08-09T20:05:30.117Z,2.60
2022-08-09T20:08:16.044Z,2.58
2022-08-09T20:10:53.804Z,2.60
2022-08-09T20:13:22.202Z,2.50
2022-08-09T20:16:32.902Z,2.80
2022-08-09T20:19:03.683Z,2.53
2022-08-09T20:21:54.854Z,2.53
2022-08-09T20:24:29.913Z,2.83
2022-08-09T20:27:08.060Z,2.33
2022-08-09T20:29:39.361Z,2.97
2022-08-09T20:32:30.153Z,2.47
2022-08-09T20:34:58.252Z,3.08
2022-08-09T20:38:18.936Z,2.55
2022-08-09T20:40:26.296Z,3.33
2022-08-09T20:42:59.895Z,4.20
2022-08-09T20:46:00.402Z,3.13
2022-08-09T20:48:31.712Z,3.10
2022-08-09T20:51:03.137Z,2.78
2022-08-09T20:53:36.992Z,2.80
2022-08-09T20:56:20.311Z,2.22
2022-08-09T20:58:58.687Z,2.70
2022-08-09T21:01:34.113Z,3.13
2022-08-09T21:05:51.204Z,2.90
2022-08-09T21:07:11.982Z,2.65
2022-08-09T21:09:45.813Z,2.53
2022-08-09T21:14:46.162Z,2.65
2022-08-09T21:18:21.808Z,2.10
2022-08-09T21:20:23.008Z,2.67
2022-08-09T21:22:55.569Z,2.85
2022-08-09T21:25:44.310Z,4.55
2022-08-09T21:28:35.075Z,2.55
2022-08-09T21:31:16.621Z,3.00
2022-08-09T21:33:50.788Z,2.47
2022-08-09T21:36:28.703Z,2.45
2022-08-09T21:38:58.817Z,2.60
2022-08-09T21:42:04.188Z,2.60
2022-08-09T21:44:33.867Z,2.30
2022-08-09T21:47:05.721Z,2.83
2022-08-09T21:49:39.589Z,5.07
2022-08-09T21:52:14.690Z,3.47
2022-08-09T21:54:50.513Z,2.47
2022-08-09T21:57:25.449Z,3.13
2022-08-09T22:00:15.001Z,2.78
2022-08-09T22:02:44.094Z,2.95
2022-08-09T22:05:23.603Z,3.72
2022-08-09T22:07:54.241Z,3.47
2022-08-09T22:10:24.093Z,3.70
2022-08-09T22:12:54.090Z,3.55
2022-08-09T22:15:23.497Z,3.75
2022-08-09T22:18:04.071Z,3.10
2022-08-09T22:20:32.482Z,3.65
2022-08-09T22:23:02.268Z,2.95
2022-08-09T22:26:07.033Z,2.92
2022-08-09T22:28:32.660Z,3.15
2022-08-09T22:31:02.482Z,3.17
2022-08-09T22:33:42.616Z,3.20
2022-08-09T22:36:19.259Z,10.27
2022-08-09T22:38:48.783Z,4.55
2022-08-09T22:41:17.605Z,3.90
2022-08-09T22:44:03.443Z,3.92
2022-08-09T22:48:18.731Z,3.28
2022-08-09T22:49:22.664Z,3.40
2022-08-09T22:51:57.494Z,3.75
2022-08-09T22:54:27.515Z,3.70
2022-08-09T22:56:58.653Z,3.30
2022-08-09T22:59:58.468Z,3.63
2022-08-09T23:02:20.370Z,3.22
2022-08-09T23:04:53.322Z,3.83
2022-08-09T23:08:22.665Z,3.50
2022-08-09T23:10:30.938Z,3.88
2022-08-09T23:13:00.227Z,3.45
2022-08-09T23:15:30.914Z,3.60
2022-08-09T23:17:59.472Z,3.33
2022-08-09T23:20:28.760Z,3.72
2022-08-09T23:22:57.188Z,3.65
2022-08-09T23:25:25.672Z,3.67
2022-08-09T23:27:58.417Z,3.80
2022-08-09T23:30:51.370Z,3.53
2022-08-09T23:33:20.733Z,2.95
2022-08-09T23:36:07.120Z,2.85
2022-08-09T23:38:48.997Z,2.60
2022-08-09T23:41:27.434Z,2.85
2022-08-09T23:43:59.213Z,3.20
2022-08-09T23:46:30.437Z,3.00
2022-08-09T23:48:59.163Z,3.13
2022-08-09T23:51:27.889Z,3.00
2022-08-09T23:54:02.952Z,2.67
2022-08-09T23:56:52.145Z,3.90
2022-08-09T23:59:21.526Z,3.65
